Terminal Aerodrome Forecast
Issued by NWS

Home | Current Version | Previous Version | Text Only | Print | Product List | Glossary Off
Versions: 1 2 3 4 5 6 7 8 9 10 11 12 13 14 15

123
FTUS43 KPAH 221424 AAA
TAFCGI
TAF AMD
KCGI 221424Z 2214/2312 06014KT P6SM VCSH OVC080
      TEMPO 2214/2217 -SHRA
     FM221700 09013G20KT 5SM -SHRA SCT025 OVC035
     FM221900 08015G25KT 3SM -SHRA SCT005 OVC015
     FM222300 08013G21KT 2SM -SHRA OVC005
     FM230500 05013G20KT 3SM -SHRA OVC006=

USA.gov is the U.S. government's official web portal to all federal, state and local government web resources and services.